Jack_BC’s ATC Tracking Thread - [CLOSED] @ YSSY

Here I will post when I am open and where in global. Feedback is very much appreciated. Criticism approved.

Notams-
Pattern work allowed
Departing- 34L and 34R
Landing- 07,34L and 34R
Straight out departures only

Metar- YSSY 121400Z 33005KT CAVOK 17/13 Q1025

This topic was automatically closed 90 days after the last reply. New replies are no longer allowed.